Time;durP1;ratioP1;P1;durP2;ratioP2;P2;SDS_P1;SDS_P2;PMS_P1;PMS_P2;Temp;Humidity;BMP_temperature;BMP_pressure;BME280_temperature;BME280_humidity;BME280_pressure;Samples;Min_cycle;Max_cycle;Signal;HPM_P1;HPM_P2
2023/09/23 00:00:47;;;;;;;7.40;5.55;;;;;;;;;;2100440;28;20396;-64
2023/09/23 00:02:09;;;;;;;6.53;5.15;;;;;;;;;;2100680;28;20392;-64
2023/09/23 00:03:31;;;;;;;7.32;4.82;;;;;;;;;;2099877;28;20020;-64
2023/09/23 00:04:50;;;;;;;4.40;4.10;;;;;;;;;;2102253;28;20536;-64
2023/09/23 00:06:09;;;;;;;6.00;5.18;;;;;;;;;;2102456;28;20121;-64
2023/09/23 00:07:30;;;;;;;5.00;4.60;;;;;;;;;;2091938;28;20471;-65
2023/09/23 00:08:50;;;;;;;4.93;4.53;;;;;;;;;;2092584;28;20024;-63
2023/09/23 00:10:10;;;;;;;13.23;4.68;;;;;;;;;;2099223;28;20404;-65
2023/09/23 00:11:30;;;;;;;5.53;4.93;;;;;;;;;;2099847;28;20032;-64
2023/09/23 00:12:49;;;;;;;5.82;4.90;;;;;;;;;;2099026;28;20032;-65
2023/09/23 00:14:11;;;;;;;3.85;3.53;;;;;;;;;;2102564;28;20024;-64
2023/09/23 00:15:30;;;;;;;6.45;3.58;;;;;;;;;;2098692;28;20068;-65
2023/09/23 00:16:50;;;;;;;5.60;3.95;;;;;;;;;;2102172;28;20032;-63
2023/09/23 00:18:09;;;;;;;3.42;2.78;;;;;;;;;;2106565;28;20056;-64
2023/09/23 00:19:29;;;;;;;2.38;2.17;;;;;;;;;;2109731;28;20027;-64
2023/09/23 00:20:48;;;;;;;2.30;1.92;;;;;;;;;;2109649;28;20146;-63
2023/09/23 00:22:08;;;;;;;2.13;1.92;;;;;;;;;;2110153;28;20031;-64
2023/09/23 00:23:27;;;;;;;1.50;1.40;;;;;;;;;;2109425;28;20477;-63
2023/09/23 00:24:46;;;;;;;2.17;1.50;;;;;;;;;;2108551;28;20032;-64
2023/09/23 00:26:06;;;;;;;1.52;1.42;;;;;;;;;;2111164;28;20024;-63
2023/09/23 00:27:28;;;;;;;1.30;1.20;;;;;;;;;;2097204;28;20020;-63
2023/09/23 00:28:47;;;;;;;1.20;1.10;;;;;;;;;;2105078;28;20032;-65
2023/09/23 00:30:07;;;;;;;1.20;1.10;;;;;;;;;;2106952;28;20028;-65
2023/09/23 00:31:26;;;;;;;2.15;1.17;;;;;;;;;;2110392;28;20035;-63
2023/09/23 00:32:45;;;;;;;2.22;1.10;;;;;;;;;;2108666;28;20032;-64
2023/09/23 00:34:04;;;;;;;2.47;1.20;;;;;;;;;;2108766;28;20031;-64
2023/09/23 00:35:23;;;;;;;1.45;1.35;;;;;;;;;;2108557;28;20023;-64
2023/09/23 00:36:42;;;;;;;0.80;0.80;;;;;;;;;;2109982;28;20039;-64
2023/09/23 00:38:01;;;;;;;1.02;0.90;;;;;;;;;;2109613;28;20032;-64
2023/09/23 00:39:20;;;;;;;1.00;0.88;;;;;;;;;;2108793;28;20032;-62
2023/09/23 00:40:40;;;;;;;1.50;0.98;;;;;;;;;;2109649;28;21288;-62
2023/09/23 00:41:59;;;;;;;1.00;0.80;;;;;;;;;;2108912;28;20482;-63
2023/09/23 00:43:18;;;;;;;2.38;0.98;;;;;;;;;;2110280;28;20027;-63
2023/09/23 00:44:41;;;;;;;4.45;0.80;;;;;;;;;;2108718;28;20046;-62
2023/09/23 00:46:00;;;;;;;0.95;0.80;;;;;;;;;;2107984;28;20468;-63
2023/09/23 00:47:19;;;;;;;1.10;1.00;;;;;;;;;;2110357;28;20027;-62
2023/09/23 00:48:39;;;;;;;1.55;0.88;;;;;;;;;;2109281;28;20027;-63
2023/09/23 00:49:58;;;;;;;1.23;0.77;;;;;;;;;;2108618;28;20028;-62
2023/09/23 00:51:21;;;;;;;2.33;0.90;;;;;;;;;;2109128;28;20031;-62
2023/09/23 00:52:40;;;;;;;3.25;1.00;;;;;;;;;;2109183;28;20032;-62
2023/09/23 00:54:01;;;;;;;1.10;1.00;;;;;;;;;;2108754;28;20115;-62
2023/09/23 00:55:20;;;;;;;2.05;1.05;;;;;;;;;;2109585;28;20020;-62
2023/09/23 00:56:41;;;;;;;3.35;0.82;;;;;;;;;;2109342;28;20028;-62
2023/09/23 00:58:00;;;;;;;1.20;1.10;;;;;;;;;;2109923;28;20036;-62
2023/09/23 00:59:19;;;;;;;1.02;0.80;;;;;;;;;;2108744;28;20027;-64
2023/09/23 01:00:43;;;;;;;2.10;0.77;;;;;;;;;;2107583;28;20071;-62
2023/09/23 01:02:02;;;;;;;1.30;0.73;;;;;;;;;;2098948;28;20024;-64
2023/09/23 01:03:21;;;;;;;1.00;0.73;;;;;;;;;;2104835;28;21323;-62
2023/09/23 01:04:40;;;;;;;0.85;0.63;;;;;;;;;;2107561;28;20102;-63
2023/09/23 01:06:08;;;;;;;0.70;0.70;;;;;;;;;;2109876;28;20028;-62
2023/09/23 01:07:30;;;;;;;1.23;0.77;;;;;;;;;;2108988;28;20496;-62
2023/09/23 01:08:51;;;;;;;2.40;0.70;;;;;;;;;;2107883;28;20032;-62
2023/09/23 01:10:10;;;;;;;2.22;0.88;;;;;;;;;;2110679;28;20396;-63
2023/09/23 01:11:30;;;;;;;2.13;0.70;;;;;;;;;;2109697;28;20067;-62
2023/09/23 01:12:49;;;;;;;2.10;1.10;;;;;;;;;;2109398;28;20032;-62
2023/09/23 01:14:09;;;;;;;1.08;0.73;;;;;;;;;;2110840;28;20019;-62
2023/09/23 01:15:31;;;;;;;2.75;0.93;;;;;;;;;;2107275;28;20543;-62
2023/09/23 01:16:51;;;;;;;3.83;1.15;;;;;;;;;;2110153;28;20027;-62
2023/09/23 01:18:24;;;;;;;1.05;0.88;;;;;;;;;;2109444;28;20055;-62
2023/09/23 01:19:43;;;;;;;0.50;0.50;;;;;;;;;;2108901;28;20431;-63
2023/09/23 01:21:03;;;;;;;1.05;0.60;;;;;;;;;;2108598;28;20024;-62
2023/09/23 01:22:23;;;;;;;3.45;0.93;;;;;;;;;;2109911;28;20032;-63
2023/09/23 01:23:44;;;;;;;0.70;0.70;;;;;;;;;;2109774;28;20115;-62
2023/09/23 01:25:03;;;;;;;2.78;1.05;;;;;;;;;;2110372;28;20020;-63
2023/09/23 01:26:23;;;;;;;1.50;1.10;;;;;;;;;;2110258;28;20404;-63
2023/09/23 01:27:42;;;;;;;1.42;1.00;;;;;;;;;;2108500;28;20095;-62
2023/09/23 01:29:04;;;;;;;0.63;0.63;;;;;;;;;;2108995;28;20031;-63
2023/09/23 01:30:24;;;;;;;0.85;0.85;;;;;;;;;;2107524;28;20031;-63
2023/09/23 01:31:44;;;;;;;1.38;1.02;;;;;;;;;;2109000;28;20035;-62
2023/09/23 01:33:07;;;;;;;1.38;0.80;;;;;;;;;;2097836;28;20028;-62
2023/09/23 01:34:28;;;;;;;1.27;0.80;;;;;;;;;;2107204;28;20039;-62
2023/09/23 01:35:48;;;;;;;2.67;0.68;;;;;;;;;;2109662;28;20387;-62
2023/09/23 01:37:09;;;;;;;0.65;0.60;;;;;;;;;;2107850;28;20039;-62
2023/09/23 01:38:29;;;;;;;0.80;0.80;;;;;;;;;;2109712;28;20036;-62
2023/09/23 01:39:48;;;;;;;0.80;0.70;;;;;;;;;;2110009;28;20027;-63
2023/09/23 01:41:07;;;;;;;3.13;1.10;;;;;;;;;;2109221;28;20031;-68
2023/09/23 01:42:28;;;;;;;0.88;0.80;;;;;;;;;;2109648;28;20504;-64
2023/09/23 01:43:49;;;;;;;1.33;0.70;;;;;;;;;;2109727;28;20426;-63
2023/09/23 01:45:10;;;;;;;3.40;1.05;;;;;;;;;;2108425;28;20024;-62
2023/09/23 01:46:30;;;;;;;1.65;1.13;;;;;;;;;;2109876;28;20024;-63
2023/09/23 01:47:49;;;;;;;1.52;1.00;;;;;;;;;;2109472;28;20036;-63
2023/09/23 01:49:08;;;;;;;1.35;0.98;;;;;;;;;;2109042;28;20032;-64
2023/09/23 01:50:27;;;;;;;2.90;1.42;;;;;;;;;;2108640;28;20028;-62
2023/09/23 01:51:46;;;;;;;1.95;0.70;;;;;;;;;;2109975;28;20064;-62
2023/09/23 01:53:06;;;;;;;2.38;0.80;;;;;;;;;;2099715;28;20036;-64
2023/09/23 01:54:26;;;;;;;1.55;0.90;;;;;;;;;;2106147;28;20500;-63
2023/09/23 01:55:45;;;;;;;0.85;0.85;;;;;;;;;;2102472;28;20031;-63
2023/09/23 01:57:04;;;;;;;0.95;0.95;;;;;;;;;;2103640;28;20661;-63
2023/09/23 01:58:23;;;;;;;1.27;0.82;;;;;;;;;;2108695;28;20035;-64
2023/09/23 01:59:43;;;;;;;1.00;0.90;;;;;;;;;;2108455;28;20027;-64
2023/09/23 02:01:04;;;;;;;2.33;0.88;;;;;;;;;;2105139;28;20110;-63
2023/09/23 02:02:23;;;;;;;3.35;1.17;;;;;;;;;;2107998;28;20041;-62
2023/09/23 02:03:42;;;;;;;2.75;0.80;;;;;;;;;;2109473;28;20055;-62
2023/09/23 02:05:00;;;;;;;1.33;0.95;;;;;;;;;;2106249;28;20012;-63
2023/09/23 02:06:19;;;;;;;1.17;0.82;;;;;;;;;;2108374;28;20494;-63
2023/09/23 02:07:39;;;;;;;1.48;0.90;;;;;;;;;;2109106;28;20016;-62
2023/09/23 02:08:59;;;;;;;2.45;0.80;;;;;;;;;;2100339;28;20020;-62
2023/09/23 02:10:18;;;;;;;4.90;1.10;;;;;;;;;;2096393;28;20028;-63
2023/09/23 02:11:40;;;;;;;1.30;0.63;;;;;;;;;;2102326;28;20032;-64
2023/09/23 02:12:59;;;;;;;1.93;1.03;;;;;;;;;;2108244;28;20032;-62
2023/09/23 02:14:18;;;;;;;1.40;0.85;;;;;;;;;;2107497;28;20233;-63
2023/09/23 02:15:37;;;;;;;1.52;0.90;;;;;;;;;;2108017;28;20028;-62
2023/09/23 02:16:57;;;;;;;2.78;0.90;;;;;;;;;;2108545;28;20028;-63
2023/09/23 02:18:16;;;;;;;1.75;1.33;;;;;;;;;;2109771;28;20040;-63
2023/09/23 02:19:35;;;;;;;1.63;1.10;;;;;;;;;;2109004;28;20023;-62
2023/09/23 02:20:54;;;;;;;1.08;0.88;;;;;;;;;;2107259;28;20048;-63
2023/09/23 02:22:13;;;;;;;1.88;1.00;;;;;;;;;;2107730;28;20036;-62
2023/09/23 02:23:32;;;;;;;1.27;0.85;;;;;;;;;;2109125;28;20028;-62
2023/09/23 02:24:51;;;;;;;1.73;1.08;;;;;;;;;;2108779;28;20023;-63
2023/09/23 02:26:11;;;;;;;4.00;1.00;;;;;;;;;;2109548;28;20023;-62
2023/09/23 02:27:29;;;;;;;3.42;1.15;;;;;;;;;;2109648;28;20389;-63
2023/09/23 02:28:48;;;;;;;0.95;0.85;;;;;;;;;;2109493;28;20050;-63
2023/09/23 02:30:09;;;;;;;1.27;0.90;;;;;;;;;;2106857;28;20027;-63
2023/09/23 02:31:28;;;;;;;2.92;1.17;;;;;;;;;;2108917;28;20023;-62
2023/09/23 02:32:46;;;;;;;2.70;0.98;;;;;;;;;;2107480;28;20497;-63
2023/09/23 02:34:05;;;;;;;1.08;0.98;;;;;;;;;;2109950;28;20031;-62
2023/09/23 02:35:25;;;;;;;1.30;1.20;;;;;;;;;;2102453;28;20036;-63
2023/09/23 02:36:47;;;;;;;3.70;1.15;;;;;;;;;;2107075;28;20031;-63
2023/09/23 02:38:07;;;;;;;2.28;1.17;;;;;;;;;;2110582;28;20028;-62
2023/09/23 02:39:25;;;;;;;2.25;1.20;;;;;;;;;;2110271;28;20059;-62
2023/09/23 02:40:45;;;;;;;2.05;1.02;;;;;;;;;;2108905;28;20035;-62
2023/09/23 02:42:06;;;;;;;2.03;1.10;;;;;;;;;;2109731;28;20028;-62
2023/09/23 02:43:25;;;;;;;1.73;1.25;;;;;;;;;;2110963;28;20032;-62
2023/09/23 02:44:45;;;;;;;2.65;1.27;;;;;;;;;;2109397;28;20387;-63
2023/09/23 02:46:05;;;;;;;1.13;1.00;;;;;;;;;;2109578;28;20027;-62
2023/09/23 02:47:24;;;;;;;2.05;1.05;;;;;;;;;;2101638;28;20024;-62
2023/09/23 02:48:44;;;;;;;5.28;1.30;;;;;;;;;;2108383;28;20384;-62
2023/09/23 02:50:04;;;;;;;1.90;1.20;;;;;;;;;;2108021;28;20031;-64
2023/09/23 02:51:23;;;;;;;2.35;0.80;;;;;;;;;;2110796;28;20119;-62
2023/09/23 02:52:44;;;;;;;2.33;1.30;;;;;;;;;;2108483;28;21676;-64
2023/09/23 02:54:05;;;;;;;2.97;1.30;;;;;;;;;;2109558;28;20039;-63
2023/09/23 02:55:24;;;;;;;0.95;0.80;;;;;;;;;;2109865;28;20342;-62
2023/09/23 02:56:46;;;;;;;1.63;1.23;;;;;;;;;;2111677;28;20036;-62
2023/09/23 02:58:05;;;;;;;1.15;1.00;;;;;;;;;;2109851;28;20031;-63
2023/09/23 02:59:29;;;;;;;1.25;1.10;;;;;;;;;;2108424;28;20436;-63
2023/09/23 03:00:57;;;;;;;3.45;1.15;;;;;;;;;;2107218;28;20505;-62
2023/09/23 03:02:22;;;;;;;1.35;0.82;;;;;;;;;;2109378;28;20028;-63
2023/09/23 03:03:43;;;;;;;1.75;1.20;;;;;;;;;;2110249;28;20032;-63
2023/09/23 03:05:07;;;;;;;1.33;0.90;;;;;;;;;;2098908;28;20025;-63
2023/09/23 03:06:26;;;;;;;1.88;0.88;;;;;;;;;;2104628;28;20063;-63
2023/09/23 03:07:49;;;;;;;2.45;1.00;;;;;;;;;;2101621;28;20036;-62
2023/09/23 03:09:10;;;;;;;1.52;1.05;;;;;;;;;;2107157;28;20020;-63
2023/09/23 03:10:39;;;;;;;1.02;0.93;;;;;;;;;;2110356;28;20391;-63
2023/09/23 03:11:59;;;;;;;1.25;0.90;;;;;;;;;;2110276;27;20352;-62
2023/09/23 03:13:18;;;;;;;4.55;1.10;;;;;;;;;;2108538;28;20107;-64
2023/09/23 03:14:42;;;;;;;1.20;1.05;;;;;;;;;;2109533;28;20020;-62
2023/09/23 03:16:08;;;;;;;3.20;1.35;;;;;;;;;;2108734;28;20028;-64
2023/09/23 03:17:28;;;;;;;2.92;1.20;;;;;;;;;;2106420;28;20040;-63
2023/09/23 03:19:10;;;;;;;1.85;1.27;;;;;;;;;;2103169;28;20032;-63
2023/09/23 03:20:30;;;;;;;3.00;1.20;;;;;;;;;;2101168;28;20032;-63
2023/09/23 03:21:50;;;;;;;2.25;1.23;;;;;;;;;;2099892;28;20103;-65
2023/09/23 03:23:09;;;;;;;2.50;1.35;;;;;;;;;;2101703;28;20024;-63
2023/09/23 03:24:29;;;;;;;2.10;1.00;;;;;;;;;;2102323;28;20036;-63
2023/09/23 03:25:48;;;;;;;4.30;1.27;;;;;;;;;;2101467;28;20020;-63
2023/09/23 03:27:08;;;;;;;1.23;0.80;;;;;;;;;;2100618;28;20028;-63
2023/09/23 03:28:27;;;;;;;2.97;1.00;;;;;;;;;;2101801;28;20029;-62
2023/09/23 03:29:48;;;;;;;1.67;1.33;;;;;;;;;;2100644;28;20843;-64
2023/09/23 03:31:08;;;;;;;1.80;1.20;;;;;;;;;;2102082;28;20512;-63
2023/09/23 03:32:27;;;;;;;2.50;1.00;;;;;;;;;;2101546;28;20482;-62
2023/09/23 03:33:46;;;;;;;1.40;1.30;;;;;;;;;;2102474;28;20484;-63
2023/09/23 03:35:11;;;;;;;1.00;0.90;;;;;;;;;;2101638;28;20052;-62
2023/09/23 03:36:31;;;;;;;2.05;1.10;;;;;;;;;;2101617;28;20029;-62
2023/09/23 03:37:50;;;;;;;1.92;1.20;;;;;;;;;;2102511;28;20024;-62
2023/09/23 03:39:09;;;;;;;2.15;0.93;;;;;;;;;;2099688;28;20521;-63
2023/09/23 03:40:29;;;;;;;2.22;1.10;;;;;;;;;;2102230;28;20040;-62
2023/09/23 03:41:49;;;;;;;4.22;1.13;;;;;;;;;;2101798;28;20104;-62
2023/09/23 03:43:07;;;;;;;2.88;0.88;;;;;;;;;;2089478;28;20955;-64
2023/09/23 03:44:26;;;;;;;1.77;1.08;;;;;;;;;;2092717;28;20497;-62
2023/09/23 03:45:45;;;;;;;2.15;0.90;;;;;;;;;;2095954;28;20500;-63
2023/09/23 03:47:04;;;;;;;2.60;1.17;;;;;;;;;;2100588;28;20063;-63
2023/09/23 03:48:23;;;;;;;3.22;1.00;;;;;;;;;;2100658;28;20027;-63
2023/09/23 03:49:42;;;;;;;1.90;0.98;;;;;;;;;;2102274;28;20021;-63
2023/09/23 03:51:05;;;;;;;2.72;1.10;;;;;;;;;;2101767;28;20078;-63
2023/09/23 03:52:25;;;;;;;1.58;1.00;;;;;;;;;;2100153;28;20021;-62
2023/09/23 03:53:44;;;;;;;1.33;1.10;;;;;;;;;;2092542;28;20029;-62
2023/09/23 03:55:03;;;;;;;1.65;1.10;;;;;;;;;;2090062;28;20028;-63
2023/09/23 03:56:24;;;;;;;1.55;1.23;;;;;;;;;;2096677;28;20048;-64
2023/09/23 03:57:44;;;;;;;1.30;0.90;;;;;;;;;;2093287;28;20017;-63
2023/09/23 03:59:06;;;;;;;3.20;1.40;;;;;;;;;;2098166;28;20400;-64
2023/09/23 04:00:27;;;;;;;2.22;1.42;;;;;;;;;;2098193;28;20032;-63
2023/09/23 04:01:46;;;;;;;1.27;0.90;;;;;;;;;;2100247;28;20032;-63
2023/09/23 04:03:05;;;;;;;3.47;1.08;;;;;;;;;;2099017;28;20036;-63
2023/09/23 04:04:24;;;;;;;3.08;1.10;;;;;;;;;;2101427;28;20117;-62
2023/09/23 04:05:43;;;;;;;2.47;1.02;;;;;;;;;;2099563;28;20103;-62
2023/09/23 04:07:02;;;;;;;2.92;1.35;;;;;;;;;;2102264;28;20032;-63
2023/09/23 04:08:21;;;;;;;2.75;1.10;;;;;;;;;;2100067;28;20025;-63
2023/09/23 04:09:40;;;;;;;2.53;1.13;;;;;;;;;;2101732;28;20028;-63
2023/09/23 04:11:04;;;;;;;4.43;1.25;;;;;;;;;;2102065;28;20032;-62
2023/09/23 04:12:23;;;;;;;2.58;1.23;;;;;;;;;;2101932;28;20428;-63
2023/09/23 04:13:44;;;;;;;4.75;1.20;;;;;;;;;;2099359;28;20032;-62
2023/09/23 04:15:04;;;;;;;3.83;1.17;;;;;;;;;;2098951;28;20028;-64
2023/09/23 04:16:24;;;;;;;1.13;1.02;;;;;;;;;;2102404;28;20040;-63
2023/09/23 04:17:43;;;;;;;1.70;1.17;;;;;;;;;;2101587;28;20041;-63
2023/09/23 04:19:03;;;;;;;2.33;1.23;;;;;;;;;;2099674;28;20313;-63
2023/09/23 04:20:22;;;;;;;1.88;0.80;;;;;;;;;;2100583;28;20028;-63
2023/09/23 04:21:41;;;;;;;1.85;1.30;;;;;;;;;;2100308;28;20020;-63
2023/09/23 04:23:00;;;;;;;1.75;1.00;;;;;;;;;;2100602;28;20032;-62
2023/09/23 04:24:20;;;;;;;1.42;1.23;;;;;;;;;;2100993;28;20025;-63
2023/09/23 04:25:39;;;;;;;1.30;1.20;;;;;;;;;;2100800;28;20058;-63
2023/09/23 04:26:59;;;;;;;1.02;0.93;;;;;;;;;;2089744;28;20029;-62
2023/09/23 04:28:18;;;;;;;1.10;0.98;;;;;;;;;;2096638;28;20037;-64
2023/09/23 04:29:37;;;;;;;2.45;1.00;;;;;;;;;;2098657;28;20040;-64
2023/09/23 04:30:59;;;;;;;1.63;0.95;;;;;;;;;;2099216;28;20032;-63
2023/09/23 04:32:18;;;;;;;2.63;1.17;;;;;;;;;;2099886;28;20036;-63
2023/09/23 04:33:37;;;;;;;0.85;0.75;;;;;;;;;;2100020;28;20037;-63
2023/09/23 04:34:56;;;;;;;1.98;1.02;;;;;;;;;;2100130;28;20028;-63
2023/09/23 04:36:15;;;;;;;2.47;1.15;;;;;;;;;;2101995;28;20032;-62
2023/09/23 04:37:37;;;;;;;1.45;1.25;;;;;;;;;;2095002;28;20040;-63
2023/09/23 04:38:56;;;;;;;2.15;1.00;;;;;;;;;;2097764;28;20450;-63
2023/09/23 04:40:15;;;;;;;2.10;1.08;;;;;;;;;;2101456;28;20032;-63
2023/09/23 04:41:34;;;;;;;2.63;1.25;;;;;;;;;;2099871;28;20028;-63
2023/09/23 04:42:53;;;;;;;1.15;1.05;;;;;;;;;;2099175;28;20024;-63
2023/09/23 04:44:12;;;;;;;1.02;0.90;;;;;;;;;;2101105;28;20020;-63
2023/09/23 04:45:31;;;;;;;1.38;1.10;;;;;;;;;;2099902;28;20020;-63
2023/09/23 04:46:50;;;;;;;3.50;1.20;;;;;;;;;;2100167;28;20024;-63
2023/09/23 04:48:09;;;;;;;3.38;1.27;;;;;;;;;;2100571;28;20032;-63
2023/09/23 04:49:28;;;;;;;2.38;0.98;;;;;;;;;;2101886;28;20051;-62
2023/09/23 04:50:47;;;;;;;1.45;1.35;;;;;;;;;;2099135;28;20024;-64
2023/09/23 04:52:07;;;;;;;0.93;0.93;;;;;;;;;;2101722;28;20020;-63
2023/09/23 04:53:28;;;;;;;1.85;1.20;;;;;;;;;;2099660;28;20040;-63
2023/09/23 04:54:53;;;;;;;2.05;1.00;;;;;;;;;;2101678;28;20074;-63
2023/09/23 04:56:16;;;;;;;4.50;1.30;;;;;;;;;;2098831;28;20432;-63
2023/09/23 04:57:36;;;;;;;1.50;1.35;;;;;;;;;;2101536;28;20032;-63
2023/09/23 04:58:58;;;;;;;3.33;1.67;;;;;;;;;;2099378;28;20029;-64
2023/09/23 05:00:18;;;;;;;2.33;1.30;;;;;;;;;;2097542;28;20062;-63
2023/09/23 05:01:37;;;;;;;2.72;1.10;;;;;;;;;;2099462;28;20021;-63
2023/09/23 05:02:56;;;;;;;1.50;1.30;;;;;;;;;;2097640;28;20028;-64
2023/09/23 05:04:15;;;;;;;1.30;1.20;;;;;;;;;;2092191;28;20060;-63
2023/09/23 05:05:35;;;;;;;1.45;1.35;;;;;;;;;;2090763;28;20663;-62
2023/09/23 05:06:54;;;;;;;2.17;1.50;;;;;;;;;;2087729;28;20421;-62
2023/09/23 05:08:13;;;;;;;1.92;1.13;;;;;;;;;;2094776;28;20055;-63
2023/09/23 05:09:34;;;;;;;5.55;1.33;;;;;;;;;;2099462;28;20020;-65
2023/09/23 05:10:53;;;;;;;3.28;1.52;;;;;;;;;;2102081;28;20028;-62
2023/09/23 05:12:14;;;;;;;3.05;1.50;;;;;;;;;;2098144;28;20064;-63
2023/09/23 05:13:33;;;;;;;1.38;1.23;;;;;;;;;;2100595;28;20074;-65
2023/09/23 05:14:53;;;;;;;1.60;1.50;;;;;;;;;;2101148;28;20033;-62
2023/09/23 05:16:11;;;;;;;3.13;1.15;;;;;;;;;;2102314;28;20036;-62
2023/09/23 05:17:30;;;;;;;1.65;1.17;;;;;;;;;;2100199;28;20120;-62
2023/09/23 05:18:49;;;;;;;4.55;1.48;;;;;;;;;;2100249;28;20509;-62
2023/09/23 05:20:25;;;;;;;2.83;1.25;;;;;;;;;;2101374;28;20041;-63
2023/09/23 05:21:45;;;;;;;1.35;1.23;;;;;;;;;;2101462;28;20052;-62
2023/09/23 05:23:05;;;;;;;1.85;1.30;;;;;;;;;;2099908;28;20020;-62
2023/09/23 05:24:26;;;;;;;1.30;1.20;;;;;;;;;;2099296;28;20096;-62
2023/09/23 05:25:45;;;;;;;1.63;1.15;;;;;;;;;;2099193;28;20028;-62
2023/09/23 05:27:05;;;;;;;3.28;1.27;;;;;;;;;;2101515;28;20024;-64
2023/09/23 05:28:27;;;;;;;3.05;1.35;;;;;;;;;;2102157;28;20508;-63
2023/09/23 05:29:50;;;;;;;1.60;1.45;;;;;;;;;;2099427;28;20047;-65
2023/09/23 05:31:13;;;;;;;1.88;1.20;;;;;;;;;;2101839;28;20505;-62
2023/09/23 05:32:32;;;;;;;1.45;1.17;;;;;;;;;;2100383;28;20516;-62
2023/09/23 05:33:51;;;;;;;1.63;1.33;;;;;;;;;;2097477;28;20029;-63
2023/09/23 05:35:10;;;;;;;3.58;1.60;;;;;;;;;;2101838;28;20024;-63
2023/09/23 05:36:29;;;;;;;1.13;0.93;;;;;;;;;;2101282;28;20099;-62
2023/09/23 05:37:51;;;;;;;3.10;1.80;;;;;;;;;;2095475;28;20020;-63
2023/09/23 05:39:13;;;;;;;2.47;1.60;;;;;;;;;;2098736;28;20025;-62
2023/09/23 05:40:36;;;;;;;3.15;1.50;;;;;;;;;;2099904;28;20025;-63
2023/09/23 05:41:55;;;;;;;2.85;1.30;;;;;;;;;;2098753;28;20468;-63
2023/09/23 05:43:14;;;;;;;2.65;1.13;;;;;;;;;;2099470;28;20440;-63
2023/09/23 05:44:33;;;;;;;1.92;1.60;;;;;;;;;;2100540;28;20028;-62
2023/09/23 05:45:52;;;;;;;2.60;1.67;;;;;;;;;;2097797;28;20048;-64
2023/09/23 05:47:11;;;;;;;2.25;1.20;;;;;;;;;;2098821;28;20142;-64
2023/09/23 05:48:30;;;;;;;2.70;0.98;;;;;;;;;;2099503;28;20032;-62
2023/09/23 05:49:49;;;;;;;2.42;1.10;;;;;;;;;;2094518;28;20215;-64
2023/09/23 05:51:08;;;;;;;4.70;1.40;;;;;;;;;;2088611;28;20025;-63
2023/09/23 05:52:27;;;;;;;2.60;1.20;;;;;;;;;;2092126;28;20029;-63
2023/09/23 05:53:46;;;;;;;1.30;1.20;;;;;;;;;;2090430;28;20012;-62
2023/09/23 05:55:06;;;;;;;2.13;0.85;;;;;;;;;;2096849;28;20036;-62
2023/09/23 05:56:25;;;;;;;1.23;1.13;;;;;;;;;;2100629;28;20024;-64
2023/09/23 05:57:44;;;;;;;1.63;1.50;;;;;;;;;;2099563;28;20056;-63
2023/09/23 05:59:05;;;;;;;1.98;1.35;;;;;;;;;;2088690;28;20655;-63
2023/09/23 06:00:25;;;;;;;5.78;1.48;;;;;;;;;;2088935;28;20129;-63
2023/09/23 06:01:44;;;;;;;1.13;1.00;;;;;;;;;;2096993;28;20024;-63
2023/09/23 06:03:03;;;;;;;2.00;1.48;;;;;;;;;;2099990;28;20411;-64
2023/09/23 06:04:22;;;;;;;1.77;1.27;;;;;;;;;;2097799;28;20433;-63
2023/09/23 06:05:41;;;;;;;3.25;1.30;;;;;;;;;;2096952;28;20581;-63
2023/09/23 06:07:00;;;;;;;4.22;1.60;;;;;;;;;;2101604;28;20024;-63
2023/09/23 06:08:19;;;;;;;1.70;1.00;;;;;;;;;;2100059;28;20067;-63
2023/09/23 06:09:42;;;;;;;3.55;1.00;;;;;;;;;;2102806;28;20469;-63
2023/09/23 06:11:04;;;;;;;1.13;1.10;;;;;;;;;;2101333;28;20040;-63
2023/09/23 06:12:25;;;;;;;1.20;1.10;;;;;;;;;;2102122;28;20338;-63
2023/09/23 06:13:44;;;;;;;1.38;1.27;;;;;;;;;;2101530;28;20024;-63
2023/09/23 06:15:04;;;;;;;3.83;1.30;;;;;;;;;;2100829;28;20028;-64
2023/09/23 06:16:23;;;;;;;2.72;1.23;;;;;;;;;;2101819;28;20032;-62
2023/09/23 06:17:42;;;;;;;3.20;1.52;;;;;;;;;;2104314;28;20036;-63
2023/09/23 06:19:00;;;;;;;1.88;1.02;;;;;;;;;;2106863;28;20024;-62
2023/09/23 06:20:20;;;;;;;2.10;1.48;;;;;;;;;;2106252;28;20028;-63
2023/09/23 06:21:39;;;;;;;1.30;1.20;;;;;;;;;;2109250;28;20023;-63
2023/09/23 06:22:58;;;;;;;3.30;1.20;;;;;;;;;;2111423;28;20019;-64
2023/09/23 06:24:17;;;;;;;4.22;1.63;;;;;;;;;;2109692;28;21436;-63
2023/09/23 06:25:36;;;;;;;3.17;1.40;;;;;;;;;;2110417;28;20036;-63
2023/09/23 06:26:56;;;;;;;1.55;1.30;;;;;;;;;;2109825;28;20384;-63
2023/09/23 06:28:15;;;;;;;3.15;1.42;;;;;;;;;;2110284;27;20028;-63
2023/09/23 06:29:34;;;;;;;1.90;1.38;;;;;;;;;;2109153;28;20115;-63
2023/09/23 06:30:53;;;;;;;2.15;1.60;;;;;;;;;;2110853;28;20053;-62
2023/09/23 06:32:12;;;;;;;3.75;1.58;;;;;;;;;;2109459;28;20019;-63
2023/09/23 06:33:31;;;;;;;3.70;1.40;;;;;;;;;;2110013;28;20028;-62
2023/09/23 06:34:50;;;;;;;2.47;1.75;;;;;;;;;;2111425;28;20063;-64
2023/09/23 06:36:09;;;;;;;4.38;1.40;;;;;;;;;;2109837;28;20045;-63
2023/09/23 06:37:28;;;;;;;1.98;1.30;;;;;;;;;;2109016;28;20041;-62
2023/09/23 06:38:47;;;;;;;2.25;1.50;;;;;;;;;;2107833;28;20107;-63
2023/09/23 06:40:06;;;;;;;1.65;1.55;;;;;;;;;;2106319;28;20118;-64
2023/09/23 06:41:25;;;;;;;5.82;1.38;;;;;;;;;;2109972;28;20028;-63
2023/09/23 06:42:44;;;;;;;1.90;1.42;;;;;;;;;;2107981;28;20020;-63
2023/09/23 06:44:04;;;;;;;1.55;1.45;;;;;;;;;;2105407;28;20045;-64
2023/09/23 06:45:22;;;;;;;1.38;1.20;;;;;;;;;;2103182;27;20138;-63
2023/09/23 06:46:41;;;;;;;1.25;1.15;;;;;;;;;;2109348;28;20020;-63
2023/09/23 06:48:00;;;;;;;1.30;1.20;;;;;;;;;;2109768;28;20023;-64
2023/09/23 06:49:19;;;;;;;1.65;1.27;;;;;;;;;;2109883;28;20028;-62
2023/09/23 06:50:38;;;;;;;1.38;1.27;;;;;;;;;;2107347;28;20031;-64
2023/09/23 06:51:57;;;;;;;1.50;1.08;;;;;;;;;;2107259;28;20036;-64
2023/09/23 06:53:16;;;;;;;1.80;1.33;;;;;;;;;;2108718;28;20028;-63
2023/09/23 06:54:35;;;;;;;4.25;1.23;;;;;;;;;;2111236;28;20032;-63
2023/09/23 06:55:54;;;;;;;2.13;1.30;;;;;;;;;;2109244;28;20024;-62
2023/09/23 06:57:13;;;;;;;4.07;1.13;;;;;;;;;;2108557;28;20023;-63
2023/09/23 06:58:32;;;;;;;3.65;1.50;;;;;;;;;;2108891;28;20028;-62
2023/09/23 06:59:51;;;;;;;2.15;1.30;;;;;;;;;;2109514;28;20031;-63
2023/09/23 07:01:10;;;;;;;3.70;1.40;;;;;;;;;;2106989;28;20031;-62
2023/09/23 07:02:29;;;;;;;2.45;1.33;;;;;;;;;;2109929;28;20100;-63
2023/09/23 07:03:48;;;;;;;2.20;1.35;;;;;;;;;;2107759;28;20036;-64
2023/09/23 07:05:09;;;;;;;1.75;1.15;;;;;;;;;;2109395;28;20024;-63
2023/09/23 07:06:28;;;;;;;2.53;1.30;;;;;;;;;;2108663;28;20142;-63
2023/09/23 07:07:48;;;;;;;1.80;1.33;;;;;;;;;;2105329;28;20102;-62
2023/09/23 07:09:07;;;;;;;4.82;1.70;;;;;;;;;;2108758;28;20019;-63
2023/09/23 07:10:26;;;;;;;3.85;1.02;;;;;;;;;;2109718;28;20059;-63
2023/09/23 07:11:46;;;;;;;2.50;1.30;;;;;;;;;;2109803;28;20032;-64
2023/09/23 07:13:05;;;;;;;1.25;1.00;;;;;;;;;;2107760;28;20027;-62
2023/09/23 07:14:24;;;;;;;2.25;0.98;;;;;;;;;;2109208;28;20023;-64
2023/09/23 07:15:43;;;;;;;4.85;1.30;;;;;;;;;;2108849;28;20040;-65
2023/09/23 07:17:04;;;;;;;1.67;1.20;;;;;;;;;;2108352;28;20028;-63
2023/09/23 07:18:23;;;;;;;1.52;1.42;;;;;;;;;;2100193;28;20036;-62
2023/09/23 07:19:45;;;;;;;2.95;1.23;;;;;;;;;;2100091;28;20028;-63
2023/09/23 07:21:04;;;;;;;2.70;1.30;;;;;;;;;;2098484;28;20040;-63
2023/09/23 07:22:23;;;;;;;3.13;1.83;;;;;;;;;;2100346;28;20381;-65
2023/09/23 07:23:42;;;;;;;3.63;1.48;;;;;;;;;;2100861;28;20020;-61
2023/09/23 07:25:03;;;;;;;1.25;1.15;;;;;;;;;;2101440;28;20044;-62
2023/09/23 07:26:22;;;;;;;2.33;1.05;;;;;;;;;;2099096;28;20111;-62
2023/09/23 07:27:41;;;;;;;1.95;1.38;;;;;;;;;;2101888;28;20029;-61
2023/09/23 07:29:00;;;;;;;1.45;1.30;;;;;;;;;;2101369;28;20025;-62
2023/09/23 07:30:19;;;;;;;3.20;1.20;;;;;;;;;;2097686;28;20464;-62
2023/09/23 07:31:37;;;;;;;2.65;1.67;;;;;;;;;;2097829;28;20059;-62
2023/09/23 07:32:57;;;;;;;2.15;1.20;;;;;;;;;;2100121;28;20016;-62
2023/09/23 07:34:16;;;;;;;1.70;1.60;;;;;;;;;;2091496;28;20037;-62
2023/09/23 07:35:35;;;;;;;2.35;1.40;;;;;;;;;;2097567;28;20705;-62
2023/09/23 07:36:54;;;;;;;3.08;1.30;;;;;;;;;;2101633;28;20027;-62
2023/09/23 07:38:14;;;;;;;2.75;1.45;;;;;;;;;;2099383;28;20036;-63
2023/09/23 07:39:33;;;;;;;3.92;1.38;;;;;;;;;;2098340;28;20021;-62
2023/09/23 07:40:53;;;;;;;1.80;1.38;;;;;;;;;;2099240;28;20389;-64
2023/09/23 07:42:12;;;;;;;2.30;1.30;;;;;;;;;;2100362;28;20021;-62
2023/09/23 07:43:32;;;;;;;4.70;1.35;;;;;;;;;;2099491;28;20036;-62
2023/09/23 07:44:50;;;;;;;2.92;1.38;;;;;;;;;;2101139;28;20024;-63
2023/09/23 07:46:09;;;;;;;2.17;1.23;;;;;;;;;;2101349;28;20036;-62
2023/09/23 07:47:28;;;;;;;4.82;1.75;;;;;;;;;;2097943;28;20488;-62
2023/09/23 07:48:47;;;;;;;2.95;1.58;;;;;;;;;;2100080;28;20036;-63
2023/09/23 07:50:06;;;;;;;2.35;1.77;;;;;;;;;;2100791;28;20028;-63
2023/09/23 07:51:25;;;;;;;3.10;1.55;;;;;;;;;;2101682;28;20033;-62
2023/09/23 07:52:44;;;;;;;2.67;1.60;;;;;;;;;;2100531;28;20028;-63
2023/09/23 07:54:03;;;;;;;2.35;1.52;;;;;;;;;;2100593;28;20048;-63
2023/09/23 07:55:22;;;;;;;1.88;1.38;;;;;;;;;;2098965;28;20103;-64
2023/09/23 07:56:41;;;;;;;5.15;1.67;;;;;;;;;;2101731;28;20063;-62
2023/09/23 07:58:00;;;;;;;5.78;1.50;;;;;;;;;;2102947;28;20048;-62
2023/09/23 07:59:19;;;;;;;1.90;1.40;;;;;;;;;;2101608;28;20497;-62